JBU2485 KJFK-KRDU
Flight info
| Callsign | JBU2485 |
|---|---|
| Flight time | 1h 25m |
| Altitude | 38000 |
| Route | WAVEY EMJAY Q167 ZJAAY TAQLE3 |
| Aircraft | A320/M-SDE3FGHIRWY/LB1 |
Departure
| Time | 2026-05-07 20:11 |
|---|---|
| Airport | John F. Kennedy International Airport (KJFK) |
Arrival
| Time | 2026-05-07 21:36 |
|---|---|
| Airport | Raleigh-Durham International Airport (KRDU) |
| Time | Latitude | Longitude | Altitude | Speed | Heading |
|---|---|---|---|---|---|
| 2026-05-07 19:35 | 40.64459 | -73.77539 | 23 ft | 0 kts | 300° |
| 2026-05-07 20:01 | 40.64458 | -73.77537 | 23 ft | 2 kts | 300° |
| 2026-05-07 20:01 | 40.64445 | -73.77508 | 24 ft | 4 kts | 308° |
| 2026-05-07 20:01 | 40.64426 | -73.77489 | 24 ft | 4 kts | 356° |
| 2026-05-07 20:01 | 40.64406 | -73.77494 | 25 ft | 1 kts | 30° |
| 2026-05-07 20:02 | 40.64403 | -73.77496 | 24 ft | 0 kts | 30° |
| 2026-05-07 20:04 | 40.64417 | -73.77485 | 25 ft | 4 kts | 30° |
| 2026-05-07 20:04 | 40.64424 | -73.77448 | 25 ft | 5 kts | 126° |
| 2026-05-07 20:05 | 40.64398 | -73.77445 | 23 ft | 7 kts | 196° |
| 2026-05-07 20:05 | 40.64327 | -73.77495 | 23 ft | 10 kts | 210° |
| 2026-05-07 20:05 | 40.64259 | -73.77546 | 23 ft | 11 kts | 209° |
| 2026-05-07 20:05 | 40.64201 | -73.77565 | 23 ft | 7 kts | 165° |
| 2026-05-07 20:06 | 40.64149 | -73.77530 | 23 ft | 10 kts | 149° |
| 2026-05-07 20:06 | 40.64091 | -73.77464 | 23 ft | 9 kts | 133° |
| 2026-05-07 20:06 | 40.64078 | -73.77443 | 24 ft | 3 kts | 126° |
| 2026-05-07 20:06 | 40.64054 | -73.77401 | 25 ft | 7 kts | 128° |
| 2026-05-07 20:07 | 40.64019 | -73.77340 | 23 ft | 10 kts | 127° |
| 2026-05-07 20:07 | 40.63971 | -73.77256 | 21 ft | 13 kts | 127° |
| 2026-05-07 20:07 | 40.63914 | -73.77157 | 24 ft | 14 kts | 128° |
| 2026-05-07 20:07 | 40.63856 | -73.77059 | 26 ft | 14 kts | 128° |
| 2026-05-07 20:08 | 40.63794 | -73.76988 | 29 ft | 11 kts | 179° |
| 2026-05-07 20:08 | 40.63722 | -73.77035 | 25 ft | 13 kts | 211° |
| 2026-05-07 20:08 | 40.63640 | -73.77100 | 25 ft | 15 kts | 211° |
| 2026-05-07 20:08 | 40.63538 | -73.77180 | 23 ft | 19 kts | 211° |
| 2026-05-07 20:09 | 40.63423 | -73.77269 | 27 ft | 19 kts | 210° |
| 2026-05-07 20:09 | 40.63302 | -73.77363 | 28 ft | 20 kts | 211° |
| 2026-05-07 20:09 | 40.63180 | -73.77459 | 30 ft | 20 kts | 210° |
| 2026-05-07 20:10 | 40.63047 | -73.77562 | 29 ft | 10 kts | 211° |
| 2026-05-07 20:10 | 40.62999 | -73.77601 | 29 ft | 8 kts | 225° |
| 2026-05-07 20:10 | 40.63025 | -73.77681 | 31 ft | 27 kts | 302° |
| 2026-05-07 20:10 | 40.63257 | -73.78188 | 22 ft | 99 kts | 301° |
| 2026-05-07 20:11 | 40.63698 | -73.79160 | 23 ft | 149 kts | 301° |
| 2026-05-07 20:11 | 40.64255 | -73.80414 | 488 ft | 157 kts | 302° |
| 2026-05-07 20:11 | 40.64553 | -73.81791 | 1120 ft | 161 kts | 270° |
| 2026-05-07 20:11 | 40.64235 | -73.83255 | 1551 ft | 179 kts | 241° |
| 2026-05-07 20:12 | 40.63524 | -73.84734 | 1871 ft | 203 kts | 241° |
| 2026-05-07 20:12 | 40.62721 | -73.86404 | 2282 ft | 228 kts | 239° |
| 2026-05-07 20:12 | 40.61814 | -73.88244 | 2810 ft | 251 kts | 233° |
| 2026-05-07 20:12 | 40.60410 | -73.89682 | 3624 ft | 264 kts | 204° |
| 2026-05-07 20:13 | 40.58583 | -73.90150 | 4564 ft | 274 kts | 178° |
| 2026-05-07 20:13 | 40.56734 | -73.89503 | 5483 ft | 281 kts | 150° |
| 2026-05-07 20:13 | 40.55254 | -73.87829 | 6409 ft | 284 kts | 130° |
| 2026-05-07 20:13 | 40.53952 | -73.85832 | 7231 ft | 291 kts | 131° |
| 2026-05-07 20:14 | 40.52547 | -73.83872 | 7987 ft | 297 kts | 146° |
| 2026-05-07 20:14 | 40.50755 | -73.82629 | 8740 ft | 294 kts | 172° |
| 2026-05-07 20:14 | 40.48769 | -73.82405 | 9613 ft | 282 kts | 195° |
| 2026-05-07 20:14 | 40.46836 | -73.82754 | 10508 ft | 279 kts | 197° |
| 2026-05-07 20:15 | 40.44916 | -73.83113 | 11440 ft | 277 kts | 197° |
| 2026-05-07 20:15 | 40.43011 | -73.83467 | 12376 ft | 276 kts | 197° |
| 2026-05-07 20:15 | 40.41119 | -73.83817 | 13247 ft | 275 kts | 197° |
| 2026-05-07 20:15 | 40.39221 | -73.84166 | 14051 ft | 275 kts | 197° |
| 2026-05-07 20:16 | 40.37322 | -73.84513 | 14795 ft | 276 kts | 197° |
| 2026-05-07 20:16 | 40.35410 | -73.84860 | 15514 ft | 278 kts | 198° |
| 2026-05-07 20:16 | 40.33489 | -73.85209 | 16234 ft | 280 kts | 198° |
| 2026-05-07 20:16 | 40.31551 | -73.85562 | 16927 ft | 283 kts | 198° |
| 2026-05-07 20:17 | 40.29531 | -73.85942 | 17091 ft | 304 kts | 198° |
| 2026-05-07 20:17 | 40.27373 | -73.86356 | 17247 ft | 323 kts | 198° |
| 2026-05-07 20:17 | 40.25115 | -73.86775 | 17703 ft | 331 kts | 197° |
| 2026-05-07 20:17 | 40.22815 | -73.87184 | 18320 ft | 336 kts | 197° |
| 2026-05-07 20:18 | 40.20524 | -73.87585 | 18946 ft | 337 kts | 198° |
| 2026-05-07 20:18 | 40.18200 | -73.87990 | 19685 ft | 337 kts | 198° |
| 2026-05-07 20:18 | 40.15881 | -73.88394 | 20447 ft | 337 kts | 198° |
| 2026-05-07 20:18 | 40.13560 | -73.88801 | 21184 ft | 336 kts | 199° |
| 2026-05-07 20:19 | 40.11238 | -73.89215 | 21882 ft | 336 kts | 199° |
| 2026-05-07 20:19 | 40.08922 | -73.89631 | 22545 ft | 336 kts | 199° |
| 2026-05-07 20:19 | 40.06606 | -73.90050 | 23187 ft | 336 kts | 199° |
| 2026-05-07 20:19 | 40.04286 | -73.90471 | 23749 ft | 337 kts | 200° |
| 2026-05-07 20:20 | 40.01963 | -73.90892 | 24234 ft | 338 kts | 200° |
| 2026-05-07 20:20 | 39.99625 | -73.91315 | 24646 ft | 340 kts | 200° |
| 2026-05-07 20:20 | 39.97272 | -73.91743 | 25086 ft | 342 kts | 200° |
| 2026-05-07 20:20 | 39.94904 | -73.92172 | 25531 ft | 344 kts | 200° |
| 2026-05-07 20:21 | 39.92522 | -73.92600 | 25951 ft | 346 kts | 200° |
| 2026-05-07 20:21 | 39.90157 | -73.93025 | 26359 ft | 349 kts | 200° |
| 2026-05-07 20:21 | 39.87746 | -73.93456 | 26765 ft | 351 kts | 200° |
| 2026-05-07 20:21 | 39.85324 | -73.93888 | 27177 ft | 353 kts | 200° |
| 2026-05-07 20:22 | 39.83677 | -73.94181 | 27454 ft | 354 kts | 200° |
| 2026-05-07 20:22 | 39.80430 | -73.94759 | 27989 ft | 357 kts | 201° |
| 2026-05-07 20:22 | 39.77960 | -73.95199 | 28323 ft | 359 kts | 201° |
| 2026-05-07 20:22 | 39.75467 | -73.95642 | 28694 ft | 362 kts | 201° |
| 2026-05-07 20:23 | 39.73774 | -73.95941 | 28956 ft | 364 kts | 201° |
| 2026-05-07 20:23 | 39.71255 | -73.96386 | 29346 ft | 366 kts | 201° |
| 2026-05-07 20:23 | 39.68756 | -73.96829 | 29716 ft | 368 kts | 201° |
| 2026-05-07 20:23 | 39.66210 | -73.97283 | 30064 ft | 370 kts | 201° |
| 2026-05-07 20:24 | 39.63649 | -73.97741 | 30363 ft | 373 kts | 201° |
| 2026-05-07 20:24 | 39.61071 | -73.98203 | 30656 ft | 375 kts | 201° |
| 2026-05-07 20:24 | 39.58479 | -73.98667 | 30951 ft | 376 kts | 201° |
| 2026-05-07 20:24 | 39.55885 | -73.99127 | 31369 ft | 376 kts | 201° |
| 2026-05-07 20:25 | 39.53301 | -73.99583 | 31797 ft | 374 kts | 201° |
| 2026-05-07 20:25 | 39.50721 | -74.00036 | 32221 ft | 374 kts | 202° |
| 2026-05-07 20:25 | 39.48140 | -74.00488 | 32687 ft | 373 kts | 202° |
| 2026-05-07 20:25 | 39.45571 | -74.00936 | 33122 ft | 372 kts | 202° |
| 2026-05-07 20:26 | 39.43122 | -74.01599 | 33558 ft | 356 kts | 211° |
| 2026-05-07 20:26 | 39.40874 | -74.02760 | 33977 ft | 342 kts | 218° |
| 2026-05-07 20:26 | 39.38876 | -74.04350 | 34351 ft | 331 kts | 226° |
| 2026-05-07 20:26 | 39.37120 | -74.06228 | 34707 ft | 327 kts | 228° |
| 2026-05-07 20:27 | 39.35387 | -74.08136 | 34992 ft | 327 kts | 228° |
| 2026-05-07 20:27 | 39.33647 | -74.10034 | 35311 ft | 327 kts | 228° |
| 2026-05-07 20:27 | 39.31904 | -74.11927 | 35640 ft | 327 kts | 228° |
| 2026-05-07 20:27 | 39.30164 | -74.13815 | 35969 ft | 327 kts | 228° |
| 2026-05-07 20:28 | 39.28447 | -74.15679 | 36296 ft | 326 kts | 228° |
| 2026-05-07 20:28 | 39.26714 | -74.17564 | 36596 ft | 326 kts | 228° |
| 2026-05-07 20:28 | 39.24980 | -74.19455 | 36904 ft | 325 kts | 228° |
| 2026-05-07 20:28 | 39.23255 | -74.21336 | 37205 ft | 325 kts | 228° |
| 2026-05-07 20:29 | 39.21525 | -74.23220 | 37507 ft | 324 kts | 228° |
| 2026-05-07 20:29 | 39.19800 | -74.25097 | 37788 ft | 324 kts | 228° |
| 2026-05-07 20:29 | 39.18072 | -74.26978 | 37883 ft | 325 kts | 228° |
| 2026-05-07 20:30 | 39.14616 | -74.30721 | 37893 ft | 325 kts | 228° |
| 2026-05-07 20:30 | 39.11180 | -74.34435 | 37901 ft | 324 kts | 228° |
| 2026-05-07 20:31 | 39.07723 | -74.38167 | 37906 ft | 324 kts | 228° |
| 2026-05-07 20:31 | 39.04263 | -74.41906 | 37907 ft | 325 kts | 228° |
| 2026-05-07 20:32 | 39.00799 | -74.45653 | 37905 ft | 325 kts | 228° |
| 2026-05-07 20:32 | 38.97360 | -74.49361 | 37884 ft | 325 kts | 228° |
| 2026-05-07 20:33 | 38.93890 | -74.53088 | 37905 ft | 325 kts | 229° |
| 2026-05-07 20:33 | 38.90526 | -74.56934 | 37903 ft | 323 kts | 230° |
| 2026-05-07 20:34 | 38.87238 | -74.60852 | 37909 ft | 323 kts | 230° |
| 2026-05-07 20:34 | 38.83935 | -74.64761 | 37907 ft | 323 kts | 230° |
| 2026-05-07 20:35 | 38.80613 | -74.68648 | 37908 ft | 323 kts | 230° |
| 2026-05-07 20:35 | 38.77281 | -74.72534 | 37901 ft | 324 kts | 230° |
| 2026-05-07 20:36 | 38.73926 | -74.76394 | 37909 ft | 325 kts | 229° |
| 2026-05-07 20:36 | 38.70435 | -74.80058 | 37910 ft | 327 kts | 227° |
| 2026-05-07 20:37 | 38.66864 | -74.83696 | 37912 ft | 327 kts | 227° |
| 2026-05-07 20:37 | 38.63321 | -74.87344 | 37912 ft | 327 kts | 228° |
| 2026-05-07 20:38 | 38.59797 | -74.91008 | 37911 ft | 326 kts | 228° |
| 2026-05-07 20:38 | 38.56271 | -74.94686 | 37909 ft | 328 kts | 228° |
| 2026-05-07 20:39 | 38.52732 | -74.98361 | 37912 ft | 328 kts | 228° |
| 2026-05-07 20:39 | 38.49301 | -75.02111 | 37902 ft | 326 kts | 230° |
| 2026-05-07 20:40 | 38.45877 | -75.05925 | 37918 ft | 328 kts | 228° |
| 2026-05-07 20:40 | 38.42237 | -75.09482 | 37898 ft | 330 kts | 226° |
| 2026-05-07 20:41 | 38.38520 | -75.12936 | 37854 ft | 331 kts | 226° |
| 2026-05-07 20:41 | 38.34795 | -75.16423 | 37894 ft | 332 kts | 226° |
| 2026-05-07 20:42 | 38.31080 | -75.19927 | 37899 ft | 332 kts | 226° |
| 2026-05-07 20:42 | 38.27376 | -75.23440 | 37897 ft | 332 kts | 226° |
| 2026-05-07 20:43 | 38.23693 | -75.26933 | 37905 ft | 332 kts | 226° |
| 2026-05-07 20:43 | 38.19983 | -75.30440 | 37900 ft | 332 kts | 226° |
| 2026-05-07 20:44 | 38.16256 | -75.33950 | 37913 ft | 334 kts | 226° |
| 2026-05-07 20:44 | 38.12526 | -75.37464 | 37907 ft | 334 kts | 226° |
| 2026-05-07 20:45 | 38.08811 | -75.40961 | 37906 ft | 334 kts | 226° |
| 2026-05-07 20:45 | 38.05098 | -75.44489 | 37908 ft | 329 kts | 230° |
| 2026-05-07 20:46 | 38.01759 | -75.48405 | 37911 ft | 326 kts | 231° |
| 2026-05-07 20:46 | 37.98428 | -75.52314 | 37835 ft | 327 kts | 231° |
| 2026-05-07 20:47 | 37.95072 | -75.56246 | 37915 ft | 329 kts | 231° |
| 2026-05-07 20:47 | 37.91703 | -75.60186 | 37915 ft | 329 kts | 231° |
| 2026-05-07 20:48 | 37.88351 | -75.64098 | 37914 ft | 329 kts | 231° |
| 2026-05-07 20:48 | 37.84980 | -75.68027 | 37913 ft | 329 kts | 231° |
| 2026-05-07 20:49 | 37.81606 | -75.71955 | 37910 ft | 329 kts | 231° |
| 2026-05-07 20:49 | 37.78234 | -75.75877 | 37863 ft | 329 kts | 232° |
| 2026-05-07 20:50 | 37.74873 | -75.79786 | 37927 ft | 330 kts | 232° |
| 2026-05-07 20:50 | 37.71498 | -75.83706 | 37916 ft | 330 kts | 232° |
| 2026-05-07 20:51 | 37.68116 | -75.87620 | 37916 ft | 330 kts | 231° |
| 2026-05-07 20:51 | 37.64734 | -75.91530 | 37914 ft | 329 kts | 231° |
| 2026-05-07 20:52 | 37.61358 | -75.95433 | 37858 ft | 329 kts | 232° |
| 2026-05-07 20:52 | 37.59791 | -75.97519 | 36912 ft | 329 kts | 238° |
| 2026-05-07 20:52 | 37.58341 | -75.99798 | 35836 ft | 338 kts | 238° |
| 2026-05-07 20:52 | 37.56856 | -76.02134 | 34874 ft | 344 kts | 238° |
| 2026-05-07 20:53 | 37.55347 | -76.04492 | 33964 ft | 348 kts | 238° |
| 2026-05-07 20:53 | 37.53812 | -76.06881 | 32911 ft | 351 kts | 238° |
| 2026-05-07 20:53 | 37.52272 | -76.09272 | 32153 ft | 349 kts | 238° |
| 2026-05-07 20:53 | 37.50751 | -76.11624 | 31625 ft | 342 kts | 238° |
| 2026-05-07 20:54 | 37.49277 | -76.13897 | 31137 ft | 336 kts | 238° |
| 2026-05-07 20:54 | 37.47805 | -76.16167 | 30659 ft | 331 kts | 238° |
| 2026-05-07 20:54 | 37.46358 | -76.18398 | 30178 ft | 326 kts | 238° |
| 2026-05-07 20:54 | 37.44940 | -76.20585 | 29658 ft | 320 kts | 238° |
| 2026-05-07 20:55 | 37.43543 | -76.22738 | 29194 ft | 313 kts | 238° |
| 2026-05-07 20:55 | 37.42179 | -76.24844 | 28748 ft | 307 kts | 238° |
| 2026-05-07 20:55 | 37.40840 | -76.26909 | 28314 ft | 301 kts | 238° |
| 2026-05-07 20:55 | 37.39527 | -76.28936 | 27890 ft | 296 kts | 238° |
| 2026-05-07 20:56 | 37.38237 | -76.30930 | 27450 ft | 292 kts | 238° |
| 2026-05-07 20:56 | 37.36982 | -76.32867 | 27083 ft | 288 kts | 237° |
| 2026-05-07 20:56 | 37.35708 | -76.34834 | 26690 ft | 286 kts | 237° |
| 2026-05-07 20:56 | 37.34473 | -76.36739 | 26319 ft | 283 kts | 237° |
| 2026-05-07 20:57 | 37.33230 | -76.38647 | 25955 ft | 281 kts | 237° |
| 2026-05-07 20:57 | 37.32000 | -76.40537 | 25592 ft | 278 kts | 237° |
| 2026-05-07 20:57 | 37.30783 | -76.42407 | 25244 ft | 275 kts | 237° |
| 2026-05-07 20:57 | 37.29575 | -76.44265 | 24898 ft | 274 kts | 236° |
| 2026-05-07 20:58 | 37.28373 | -76.46115 | 24564 ft | 273 kts | 236° |
| 2026-05-07 20:58 | 37.27173 | -76.47956 | 24229 ft | 272 kts | 236° |
| 2026-05-07 20:58 | 37.25972 | -76.49800 | 23891 ft | 272 kts | 236° |
| 2026-05-07 20:58 | 37.24756 | -76.51697 | 23847 ft | 287 kts | 237° |
| 2026-05-07 20:59 | 37.23493 | -76.53686 | 23793 ft | 294 kts | 237° |
| 2026-05-07 20:59 | 37.22215 | -76.55697 | 23735 ft | 296 kts | 237° |
| 2026-05-07 20:59 | 37.20925 | -76.57716 | 23676 ft | 296 kts | 237° |
| 2026-05-07 20:59 | 37.19633 | -76.59730 | 23618 ft | 296 kts | 236° |
| 2026-05-07 21:00 | 37.18342 | -76.61740 | 23520 ft | 297 kts | 236° |
| 2026-05-07 21:00 | 37.17044 | -76.63758 | 23454 ft | 297 kts | 236° |
| 2026-05-07 21:00 | 37.15761 | -76.65750 | 23368 ft | 298 kts | 236° |
| 2026-05-07 21:00 | 37.14462 | -76.67767 | 23091 ft | 297 kts | 236° |
| 2026-05-07 21:01 | 37.13165 | -76.69782 | 22832 ft | 296 kts | 236° |
| 2026-05-07 21:01 | 37.11873 | -76.71789 | 22566 ft | 296 kts | 236° |
| 2026-05-07 21:01 | 37.10583 | -76.73794 | 22308 ft | 295 kts | 236° |
| 2026-05-07 21:01 | 37.09293 | -76.75797 | 22047 ft | 295 kts | 236° |
| 2026-05-07 21:02 | 37.08004 | -76.77796 | 21892 ft | 294 kts | 236° |
| 2026-05-07 21:02 | 37.06716 | -76.79791 | 21921 ft | 295 kts | 236° |
| 2026-05-07 21:02 | 37.05426 | -76.81791 | 21922 ft | 295 kts | 236° |
| 2026-05-07 21:02 | 37.04137 | -76.83788 | 21922 ft | 295 kts | 236° |
| 2026-05-07 21:03 | 37.02846 | -76.85789 | 21922 ft | 295 kts | 236° |
| 2026-05-07 21:03 | 37.01553 | -76.87787 | 21952 ft | 294 kts | 237° |
| 2026-05-07 21:03 | 37.00268 | -76.89768 | 21936 ft | 293 kts | 237° |
| 2026-05-07 21:03 | 36.98988 | -76.91743 | 21934 ft | 292 kts | 237° |
| 2026-05-07 21:04 | 36.97707 | -76.93724 | 21895 ft | 294 kts | 237° |
| 2026-05-07 21:04 | 36.96417 | -76.95717 | 21632 ft | 295 kts | 237° |
| 2026-05-07 21:04 | 36.95127 | -76.97706 | 21383 ft | 294 kts | 236° |
| 2026-05-07 21:04 | 36.93837 | -76.99693 | 21133 ft | 294 kts | 236° |
| 2026-05-07 21:05 | 36.92547 | -77.01675 | 20881 ft | 294 kts | 236° |
| 2026-05-07 21:05 | 36.91256 | -77.03653 | 20625 ft | 294 kts | 236° |
| 2026-05-07 21:05 | 36.89963 | -77.05634 | 20390 ft | 294 kts | 236° |
| 2026-05-07 21:05 | 36.88672 | -77.07615 | 20149 ft | 294 kts | 236° |
| 2026-05-07 21:06 | 36.87382 | -77.09591 | 19907 ft | 293 kts | 236° |
| 2026-05-07 21:06 | 36.86090 | -77.11571 | 19778 ft | 298 kts | 236° |
| 2026-05-07 21:06 | 36.84741 | -77.13650 | 19661 ft | 320 kts | 236° |
| 2026-05-07 21:06 | 36.83286 | -77.15900 | 19541 ft | 345 kts | 236° |
| 2026-05-07 21:07 | 36.81752 | -77.18264 | 19421 ft | 365 kts | 235° |
| 2026-05-07 21:07 | 36.80123 | -77.20758 | 19302 ft | 374 kts | 235° |
| 2026-05-07 21:07 | 36.78460 | -77.23286 | 19175 ft | 376 kts | 235° |
| 2026-05-07 21:07 | 36.76782 | -77.25799 | 19059 ft | 377 kts | 235° |
| 2026-05-07 21:08 | 36.75097 | -77.28303 | 18991 ft | 377 kts | 235° |
| 2026-05-07 21:08 | 36.73406 | -77.30804 | 18991 ft | 378 kts | 234° |
| 2026-05-07 21:08 | 36.71711 | -77.33306 | 18992 ft | 378 kts | 234° |
| 2026-05-07 21:08 | 36.70017 | -77.35809 | 18994 ft | 378 kts | 234° |
| 2026-05-07 21:09 | 36.68353 | -77.38268 | 18833 ft | 362 kts | 235° |
| 2026-05-07 21:09 | 36.66770 | -77.40604 | 18603 ft | 345 kts | 235° |
| 2026-05-07 21:09 | 36.65256 | -77.42841 | 18376 ft | 332 kts | 235° |
| 2026-05-07 21:09 | 36.63797 | -77.45002 | 18138 ft | 320 kts | 235° |
| 2026-05-07 21:10 | 36.62408 | -77.47060 | 17871 ft | 308 kts | 236° |
| 2026-05-07 21:10 | 36.61054 | -77.49068 | 17616 ft | 298 kts | 236° |
| 2026-05-07 21:10 | 36.59733 | -77.51030 | 17358 ft | 294 kts | 236° |
| 2026-05-07 21:10 | 36.58423 | -77.52977 | 17094 ft | 292 kts | 236° |
| 2026-05-07 21:11 | 36.57119 | -77.54916 | 16797 ft | 292 kts | 236° |
| 2026-05-07 21:11 | 36.55815 | -77.56852 | 16533 ft | 292 kts | 236° |
| 2026-05-07 21:11 | 36.53209 | -77.60708 | 16045 ft | 290 kts | 235° |
| 2026-05-07 21:12 | 36.51925 | -77.62599 | 15800 ft | 289 kts | 235° |
| 2026-05-07 21:12 | 36.50628 | -77.64507 | 15553 ft | 288 kts | 235° |
| 2026-05-07 21:12 | 36.49335 | -77.66408 | 15312 ft | 288 kts | 234° |
| 2026-05-07 21:12 | 36.48046 | -77.68308 | 15068 ft | 287 kts | 234° |
| 2026-05-07 21:13 | 36.46760 | -77.70204 | 14825 ft | 286 kts | 234° |
| 2026-05-07 21:13 | 36.45477 | -77.72094 | 14588 ft | 286 kts | 234° |
| 2026-05-07 21:13 | 36.44192 | -77.73980 | 14351 ft | 286 kts | 234° |
| 2026-05-07 21:13 | 36.43344 | -77.75222 | 14197 ft | 285 kts | 234° |
| 2026-05-07 21:14 | 36.42061 | -77.77105 | 13964 ft | 285 kts | 234° |
| 2026-05-07 21:14 | 36.40785 | -77.78980 | 13736 ft | 284 kts | 234° |
| 2026-05-07 21:14 | 36.39510 | -77.80853 | 13474 ft | 284 kts | 233° |
| 2026-05-07 21:14 | 36.38233 | -77.82725 | 13202 ft | 284 kts | 233° |
| 2026-05-07 21:15 | 36.36541 | -77.85205 | 12848 ft | 285 kts | 233° |
| 2026-05-07 21:15 | 36.35260 | -77.87084 | 12589 ft | 285 kts | 233° |
| 2026-05-07 21:15 | 36.34390 | -77.88358 | 12418 ft | 286 kts | 233° |
| 2026-05-07 21:15 | 36.33101 | -77.90242 | 12164 ft | 287 kts | 233° |
| 2026-05-07 21:16 | 36.31809 | -77.92130 | 11908 ft | 287 kts | 233° |
| 2026-05-07 21:16 | 36.30531 | -77.93995 | 11652 ft | 287 kts | 233° |
| 2026-05-07 21:16 | 36.29236 | -77.95887 | 11425 ft | 288 kts | 233° |
| 2026-05-07 21:16 | 36.27943 | -77.97776 | 11176 ft | 287 kts | 233° |
| 2026-05-07 21:17 | 36.26651 | -77.99659 | 10932 ft | 286 kts | 233° |
| 2026-05-07 21:17 | 36.25362 | -78.01541 | 10692 ft | 286 kts | 233° |
| 2026-05-07 21:17 | 36.24073 | -78.03422 | 10453 ft | 286 kts | 233° |
| 2026-05-07 21:17 | 36.22930 | -78.05425 | 10219 ft | 284 kts | 243° |
| 2026-05-07 21:18 | 36.22092 | -78.07605 | 9987 ft | 282 kts | 248° |
| 2026-05-07 21:18 | 36.21297 | -78.09772 | 9861 ft | 270 kts | 247° |
| 2026-05-07 21:18 | 36.20539 | -78.11847 | 9739 ft | 259 kts | 248° |
| 2026-05-07 21:18 | 36.19839 | -78.13886 | 9610 ft | 256 kts | 249° |
| 2026-05-07 21:19 | 36.19159 | -78.15922 | 9483 ft | 256 kts | 249° |
| 2026-05-07 21:19 | 36.18485 | -78.17959 | 9353 ft | 256 kts | 249° |
| 2026-05-07 21:19 | 36.17812 | -78.19991 | 9225 ft | 255 kts | 249° |
| 2026-05-07 21:19 | 36.17134 | -78.22022 | 9096 ft | 255 kts | 249° |
| 2026-05-07 21:20 | 36.16457 | -78.24047 | 8951 ft | 255 kts | 249° |
| 2026-05-07 21:20 | 36.15776 | -78.26087 | 9013 ft | 258 kts | 249° |
| 2026-05-07 21:20 | 36.15034 | -78.28116 | 9039 ft | 260 kts | 243° |
| 2026-05-07 21:20 | 36.13997 | -78.29957 | 9045 ft | 262 kts | 235° |
| 2026-05-07 21:21 | 36.12882 | -78.31710 | 9049 ft | 262 kts | 235° |
| 2026-05-07 21:21 | 36.11757 | -78.33485 | 9050 ft | 262 kts | 235° |
| 2026-05-07 21:21 | 36.10634 | -78.35264 | 9048 ft | 262 kts | 235° |
| 2026-05-07 21:21 | 36.09513 | -78.37041 | 9049 ft | 262 kts | 235° |
| 2026-05-07 21:22 | 36.08393 | -78.38815 | 9058 ft | 262 kts | 236° |
| 2026-05-07 21:22 | 36.07268 | -78.40596 | 9057 ft | 262 kts | 235° |
| 2026-05-07 21:22 | 36.06145 | -78.42371 | 9057 ft | 262 kts | 235° |
| 2026-05-07 21:22 | 36.05023 | -78.44145 | 9056 ft | 262 kts | 235° |
| 2026-05-07 21:23 | 36.03900 | -78.45917 | 9053 ft | 262 kts | 235° |
| 2026-05-07 21:23 | 36.02773 | -78.47688 | 9055 ft | 262 kts | 235° |
| 2026-05-07 21:23 | 36.01646 | -78.49460 | 9052 ft | 262 kts | 235° |
| 2026-05-07 21:23 | 36.00536 | -78.51200 | 9047 ft | 261 kts | 234° |
| 2026-05-07 21:24 | 35.99226 | -78.52786 | 8968 ft | 266 kts | 224° |
| 2026-05-07 21:24 | 35.97795 | -78.54222 | 8731 ft | 264 kts | 223° |
| 2026-05-07 21:24 | 35.96368 | -78.55648 | 8492 ft | 264 kts | 223° |
| 2026-05-07 21:24 | 35.94939 | -78.57073 | 8240 ft | 263 kts | 224° |
| 2026-05-07 21:25 | 35.93521 | -78.58488 | 8002 ft | 261 kts | 224° |
| 2026-05-07 21:25 | 35.92110 | -78.59896 | 7757 ft | 260 kts | 224° |
| 2026-05-07 21:25 | 35.90703 | -78.61299 | 7525 ft | 260 kts | 223° |
| 2026-05-07 21:25 | 35.89310 | -78.62688 | 7344 ft | 254 kts | 224° |
| 2026-05-07 21:26 | 35.87955 | -78.64038 | 7223 ft | 246 kts | 224° |
| 2026-05-07 21:26 | 35.86645 | -78.65343 | 7093 ft | 238 kts | 224° |
| 2026-05-07 21:26 | 35.85438 | -78.66676 | 6924 ft | 229 kts | 229° |
| 2026-05-07 21:26 | 35.84318 | -78.68042 | 6812 ft | 226 kts | 229° |
| 2026-05-07 21:27 | 35.83197 | -78.69401 | 6659 ft | 226 kts | 229° |
| 2026-05-07 21:27 | 35.82076 | -78.70759 | 6484 ft | 226 kts | 228° |
| 2026-05-07 21:27 | 35.80957 | -78.72113 | 6300 ft | 225 kts | 228° |
| 2026-05-07 21:27 | 35.79868 | -78.73441 | 6135 ft | 219 kts | 229° |
| 2026-05-07 21:28 | 35.78809 | -78.74738 | 6005 ft | 210 kts | 229° |
| 2026-05-07 21:28 | 35.77793 | -78.75982 | 5811 ft | 203 kts | 229° |
| 2026-05-07 21:28 | 35.76793 | -78.77208 | 5498 ft | 203 kts | 228° |
| 2026-05-07 21:28 | 35.75787 | -78.78439 | 5136 ft | 205 kts | 228° |
| 2026-05-07 21:29 | 35.74771 | -78.79681 | 4810 ft | 206 kts | 228° |
| 2026-05-07 21:29 | 35.73754 | -78.80928 | 4465 ft | 206 kts | 227° |
| 2026-05-07 21:29 | 35.72728 | -78.82174 | 4116 ft | 208 kts | 226° |
| 2026-05-07 21:29 | 35.71704 | -78.83400 | 3997 ft | 204 kts | 225° |
| 2026-05-07 21:30 | 35.70699 | -78.84633 | 4004 ft | 203 kts | 229° |
| 2026-05-07 21:30 | 35.69792 | -78.85955 | 3971 ft | 198 kts | 247° |
| 2026-05-07 21:30 | 35.69600 | -78.87536 | 3740 ft | 186 kts | 285° |
| 2026-05-07 21:30 | 35.70081 | -78.88962 | 3574 ft | 179 kts | 298° |
| 2026-05-07 21:31 | 35.70705 | -78.90317 | 3227 ft | 184 kts | 302° |
| 2026-05-07 21:31 | 35.71363 | -78.91678 | 3028 ft | 185 kts | 304° |
| 2026-05-07 21:31 | 35.72032 | -78.93051 | 3020 ft | 188 kts | 303° |
| 2026-05-07 21:31 | 35.72892 | -78.94230 | 3007 ft | 185 kts | 335° |
| 2026-05-07 21:32 | 35.74132 | -78.94463 | 3019 ft | 183 kts | 14° |
| 2026-05-07 21:32 | 35.75186 | -78.93633 | 3035 ft | 182 kts | 45° |
| 2026-05-07 21:32 | 35.76080 | -78.92517 | 3025 ft | 183 kts | 43° |
| 2026-05-07 21:32 | 35.76967 | -78.91430 | 2971 ft | 178 kts | 44° |
| 2026-05-07 21:33 | 35.77823 | -78.90380 | 2808 ft | 171 kts | 43° |
| 2026-05-07 21:33 | 35.78650 | -78.89362 | 2588 ft | 165 kts | 44° |
| 2026-05-07 21:33 | 35.79453 | -78.88376 | 2373 ft | 161 kts | 44° |
| 2026-05-07 21:33 | 35.80225 | -78.87425 | 2161 ft | 151 kts | 44° |
| 2026-05-07 21:34 | 35.80942 | -78.86542 | 1965 ft | 141 kts | 44° |
| 2026-05-07 21:34 | 35.81621 | -78.85705 | 1782 ft | 135 kts | 45° |
| 2026-05-07 21:34 | 35.82285 | -78.84888 | 1601 ft | 135 kts | 45° |
| 2026-05-07 21:34 | 35.82944 | -78.84075 | 1420 ft | 133 kts | 44° |
| 2026-05-07 21:35 | 35.83594 | -78.83274 | 1232 ft | 132 kts | 44° |
| 2026-05-07 21:35 | 35.84246 | -78.82467 | 1057 ft | 132 kts | 42° |
| 2026-05-07 21:35 | 35.84898 | -78.81662 | 890 ft | 132 kts | 43° |
| 2026-05-07 21:35 | 35.85551 | -78.80865 | 671 ft | 131 kts | 44° |
| 2026-05-07 21:36 | 35.86199 | -78.80056 | 524 ft | 133 kts | 44° |
| 2026-05-07 21:36 | 35.86828 | -78.79286 | 422 ft | 115 kts | 46° |
| 2026-05-07 21:36 | 35.86651 | -78.79503 | 431 ft | 0 kts | 44° |
| 2026-05-07 21:36 | 35.86687 | -78.79460 | 426 ft | 20 kts | 44° |
| 2026-05-07 21:37 | 35.86796 | -78.79327 | 435 ft | 24 kts | 45° |
| 2026-05-07 21:37 | 35.86921 | -78.79174 | 431 ft | 27 kts | 41° |
| 2026-05-07 21:37 | 35.87085 | -78.79097 | 429 ft | 22 kts | 17° |
| 2026-05-07 21:37 | 35.87109 | -78.79088 | 432 ft | 22 kts | 16° |
| 2026-05-07 21:38 | 35.87183 | -78.79057 | 426 ft | 21 kts | 23° |
| 2026-05-07 21:39 | 35.87289 | -78.78992 | 430 ft | 16 kts | 32° |
| 2026-05-07 21:39 | 35.87352 | -78.78966 | 426 ft | 6 kts | 340° |
| 2026-05-07 21:39 | 35.87373 | -78.78985 | 430 ft | 1 kts | 322° |